createdAt,value
2023-02-04T00:00:29.256Z,4.70
2023-02-04T00:02:57.463Z,4.60
2023-02-04T00:05:26.986Z,4.60
2023-02-04T00:07:54.898Z,4.50
2023-02-04T00:10:22.640Z,4.50
2023-02-04T00:12:50.446Z,4.40
2023-02-04T00:15:18.166Z,4.40
2023-02-04T00:17:45.902Z,4.30
2023-02-04T00:20:14.012Z,4.30
2023-02-04T00:22:43.115Z,4.30
2023-02-04T00:25:10.924Z,4.20
2023-02-04T00:27:39.273Z,4.30
2023-02-04T00:30:08.669Z,4.30
2023-02-04T00:32:36.420Z,4.30
2023-02-04T00:35:04.672Z,4.30
2023-02-04T00:37:33.047Z,4.30
2023-02-04T00:40:02.330Z,4.40
2023-02-04T00:42:30.240Z,4.40
2023-02-04T00:44:57.984Z,4.50
2023-02-04T00:47:25.785Z,4.50
2023-02-04T00:49:53.503Z,4.50
2023-02-04T00:52:21.257Z,4.50
2023-02-04T00:54:49.003Z,4.40
2023-02-04T00:57:18.216Z,4.40
2023-02-04T00:59:46.041Z,4.30
2023-02-04T01:02:14.187Z,4.20
2023-02-04T01:04:42.081Z,4.20
2023-02-04T01:07:09.812Z,4.20
2023-02-04T01:09:37.693Z,4.10
2023-02-04T01:12:05.714Z,4.00
2023-02-04T01:14:35.297Z,4.00
2023-02-04T01:17:03.087Z,3.90
2023-02-04T01:19:30.839Z,3.90
2023-02-04T01:21:58.610Z,3.80
2023-02-04T01:24:26.331Z,3.80
2023-02-04T01:26:54.164Z,3.80
2023-02-04T01:29:21.872Z,3.80
2023-02-04T01:31:51.038Z,3.80
2023-02-04T01:34:18.810Z,3.90
2023-02-04T01:36:46.583Z,3.90
2023-02-04T01:39:15.246Z,4.00
2023-02-04T01:41:43.154Z,4.00
2023-02-04T01:44:11.464Z,4.00
2023-02-04T01:46:39.348Z,4.00
2023-02-04T01:49:08.795Z,4.00
2023-02-04T01:51:37.949Z,4.00
2023-02-04T01:54:06.177Z,4.00
2023-02-04T01:56:33.949Z,3.90
2023-02-04T01:59:01.881Z,3.90
2023-02-04T02:01:38.010Z,3.80
2023-02-04T02:04:07.651Z,3.80
2023-02-04T02:06:36.774Z,3.70
2023-02-04T02:09:05.312Z,3.70
2023-02-04T02:11:33.876Z,3.70
2023-02-04T02:14:02.039Z,3.70
2023-02-04T02:16:29.967Z,3.70
2023-02-04T02:18:59.879Z,3.80
2023-02-04T02:21:35.965Z,3.90
2023-02-04T02:24:25.652Z,3.90
2023-02-04T02:26:54.350Z,4.00
2023-02-04T02:29:22.736Z,4.00
2023-02-04T02:31:51.192Z,4.00
2023-02-04T02:34:19.157Z,4.10
2023-02-04T02:36:46.954Z,4.10
2023-02-04T02:39:16.390Z,4.10
2023-02-04T02:41:44.306Z,4.10
2023-02-04T02:44:13.307Z,4.20
2023-02-04T02:46:41.480Z,4.20
2023-02-04T02:49:16.213Z,4.30
2023-02-04T02:51:44.526Z,4.30
2023-02-04T02:54:22.672Z,4.30
2023-02-04T02:56:50.458Z,4.30
2023-02-04T02:59:19.439Z,4.30
2023-02-04T03:01:49.698Z,4.30
2023-02-04T03:04:18.838Z,4.30
2023-02-04T03:06:46.600Z,4.30
2023-02-04T03:09:16.510Z,4.40
2023-02-04T03:11:44.452Z,4.40
2023-02-04T03:14:12.215Z,4.40
2023-02-04T03:16:40.499Z,4.40
2023-02-04T03:19:09.378Z,4.40
2023-02-04T03:21:37.900Z,4.40
2023-02-04T03:24:06.517Z,4.40
2023-02-04T03:26:35.954Z,4.40
2023-02-04T03:29:03.678Z,4.40
2023-02-04T03:31:31.550Z,4.40
2023-02-04T03:33:59.323Z,4.30
2023-02-04T03:36:27.092Z,4.30
2023-02-04T03:38:55.159Z,4.20
2023-02-04T03:41:22.968Z,4.10
2023-02-04T03:43:52.128Z,4.00
2023-02-04T03:46:19.983Z,3.90
2023-02-04T03:48:47.802Z,3.80
2023-02-04T03:51:15.679Z,3.80
2023-02-04T03:53:43.499Z,3.60
2023-02-04T03:56:11.353Z,3.50
2023-02-04T03:58:39.123Z,3.50
2023-02-04T04:01:08.354Z,3.40
2023-02-04T04:03:36.317Z,3.30
2023-02-04T04:06:06.560Z,3.20
2023-02-04T04:08:34.551Z,3.20
2023-02-04T04:11:02.382Z,3.10
2023-02-04T04:13:30.160Z,3.10
2023-02-04T04:15:57.971Z,3.10
2023-02-04T04:18:27.149Z,3.10
2023-02-04T04:20:54.950Z,3.20
2023-02-04T04:23:22.709Z,3.20
2023-02-04T04:25:50.584Z,3.20
2023-02-04T04:28:19.271Z,3.30
2023-02-04T04:30:47.111Z,3.40
2023-02-04T04:33:15.044Z,3.40
2023-02-04T04:35:44.146Z,3.40
2023-02-04T04:38:12.067Z,3.40
2023-02-04T04:40:39.944Z,3.50
2023-02-04T04:43:07.695Z,3.50
2023-02-04T04:45:35.481Z,3.50
2023-02-04T04:48:03.285Z,3.50
2023-02-04T04:50:31.336Z,3.60
2023-02-04T04:53:00.651Z,3.60
2023-02-04T04:55:28.415Z,3.60
2023-02-04T04:57:56.450Z,3.60
2023-02-04T05:00:24.602Z,3.70
2023-02-04T05:02:52.364Z,3.70
2023-02-04T05:05:20.180Z,3.70
2023-02-04T05:07:47.967Z,3.70
2023-02-04T05:10:17.584Z,3.70
2023-02-04T05:12:45.472Z,3.70
2023-02-04T05:15:13.571Z,3.70
2023-02-04T05:17:41.436Z,3.80
2023-02-04T05:20:10.452Z,3.70
2023-02-04T05:22:38.261Z,3.70
2023-02-04T05:25:06.504Z,3.70
2023-02-04T05:27:35.844Z,3.70
2023-02-04T05:30:03.676Z,3.60
2023-02-04T05:32:31.473Z,3.50
2023-02-04T05:34:59.355Z,3.40
2023-02-04T05:37:27.099Z,3.30
2023-02-04T05:39:55.202Z,3.20
2023-02-04T05:42:23.032Z,3.10
2023-02-04T05:44:52.296Z,3.00
2023-02-04T05:47:20.391Z,2.90
2023-02-04T05:49:48.464Z,2.80
2023-02-04T05:52:16.380Z,2.80
2023-02-04T05:54:44.500Z,2.70
2023-02-04T05:57:12.315Z,2.60
2023-02-04T05:59:40.139Z,2.60
2023-02-04T06:02:09.329Z,2.60
2023-02-04T06:04:37.307Z,2.50
2023-02-04T06:07:05.373Z,2.50
2023-02-04T06:09:33.316Z,2.40
2023-02-04T06:12:01.137Z,2.40
2023-02-04T06:14:28.942Z,2.30
2023-02-04T06:16:57.525Z,2.30
2023-02-04T06:19:27.108Z,2.20
2023-02-04T06:21:55.674Z,2.20
2023-02-04T06:24:23.745Z,2.20
2023-02-04T06:26:51.644Z,2.10
2023-02-04T06:29:19.929Z,2.10
2023-02-04T06:31:49.427Z,2.00
2023-02-04T06:34:17.422Z,2.00
2023-02-04T06:36:46.566Z,1.90
2023-02-04T06:39:17.330Z,2.00
2023-02-04T06:41:45.523Z,1.90
2023-02-04T06:44:13.321Z,1.90
2023-02-04T06:46:41.076Z,1.90
2023-02-04T06:49:08.884Z,1.80
2023-02-04T06:51:36.655Z,1.80
2023-02-04T06:54:05.761Z,1.80
2023-02-04T06:56:33.671Z,1.80
2023-02-04T06:59:03.319Z,1.80
2023-02-04T07:01:31.255Z,1.80
2023-02-04T07:03:59.134Z,1.80
2023-02-04T07:06:27.130Z,1.90
2023-02-04T07:08:54.912Z,1.90
2023-02-04T07:11:24.117Z,1.90
2023-02-04T07:13:52.072Z,1.90
2023-02-04T07:16:20.226Z,1.90
2023-02-04T07:18:47.997Z,1.90
2023-02-04T07:21:15.763Z,1.90
2023-02-04T07:23:43.544Z,1.90
2023-02-04T07:26:11.453Z,1.90
2023-02-04T07:28:42.364Z,1.90
2023-02-04T07:31:10.545Z,1.90
2023-02-04T07:33:38.370Z,1.90
2023-02-04T07:36:06.492Z,1.90
2023-02-04T07:38:34.421Z,1.90
2023-02-04T07:41:02.270Z,1.90
2023-02-04T07:43:30.826Z,2.00
2023-02-04T07:46:01.287Z,2.00
2023-02-04T07:48:29.402Z,2.00
2023-02-04T07:50:57.283Z,2.10
2023-02-04T07:53:25.535Z,2.10
2023-02-04T07:55:53.269Z,2.10
2023-02-04T07:58:21.187Z,2.20
2023-02-04T08:00:50.052Z,2.20
2023-02-04T08:03:19.179Z,2.20
2023-02-04T08:05:47.220Z,2.30
2023-02-04T08:08:15.470Z,2.40
2023-02-04T08:10:43.878Z,2.40
2023-02-04T08:13:11.899Z,2.40
2023-02-04T08:15:39.705Z,2.40
2023-02-04T08:18:07.916Z,2.40
2023-02-04T08:20:37.072Z,2.40
2023-02-04T08:23:04.828Z,2.50
2023-02-04T08:25:32.903Z,2.40
2023-02-04T08:28:00.806Z,2.50
2023-02-04T08:30:28.693Z,2.50
2023-02-04T08:32:56.530Z,2.60
2023-02-04T08:35:24.389Z,2.70
2023-02-04T08:37:54.015Z,2.70
2023-02-04T08:40:21.774Z,2.70
2023-02-04T08:42:49.613Z,2.80
2023-02-04T08:45:17.517Z,2.80
2023-02-04T08:47:45.423Z,2.90
2023-02-04T08:50:13.384Z,2.90
2023-02-04T08:52:41.450Z,3.00
2023-02-04T08:55:10.920Z,3.00
2023-02-04T08:57:38.667Z,3.10
2023-02-04T09:00:08.313Z,3.20
2023-02-04T09:02:36.144Z,3.30
2023-02-04T09:05:04.201Z,3.40
2023-02-04T09:07:32.229Z,3.50
2023-02-04T09:10:00.569Z,3.50
2023-02-04T09:12:29.858Z,3.60
2023-02-04T09:14:57.858Z,3.70
2023-02-04T09:17:25.673Z,3.80
2023-02-04T09:19:54.242Z,3.90
2023-02-04T09:22:21.962Z,4.00
2023-02-04T09:24:49.771Z,4.00
2023-02-04T09:27:17.557Z,4.00
2023-02-04T09:29:46.761Z,4.00
2023-02-04T09:32:14.677Z,4.00
2023-02-04T09:34:42.429Z,4.10
2023-02-04T09:37:10.213Z,4.10
2023-02-04T09:39:38.188Z,4.10
2023-02-04T09:42:06.223Z,4.10
2023-02-04T09:44:34.117Z,4.10
2023-02-04T09:47:05.097Z,4.20
2023-02-04T09:49:34.161Z,4.20
2023-02-04T09:52:02.038Z,4.20
2023-02-04T09:54:29.848Z,4.20
2023-02-04T09:56:59.716Z,4.30
2023-02-04T09:59:29.300Z,4.30
2023-02-04T10:02:01.459Z,4.30
2023-02-04T10:04:30.950Z,4.40
2023-02-04T10:06:59.496Z,4.40
2023-02-04T10:09:27.764Z,4.40
2023-02-04T10:11:56.057Z,4.50
2023-02-04T10:14:24.674Z,4.50
2023-02-04T10:16:58.505Z,4.50
2023-02-04T10:19:28.673Z,4.60
2023-02-04T10:21:59.733Z,4.60
2023-02-04T10:24:30.446Z,4.60
2023-02-04T10:27:09.343Z,4.70
2023-02-04T10:29:37.217Z,4.70
2023-02-04T10:32:05.422Z,4.80
2023-02-04T10:34:37.807Z,4.80
2023-02-04T10:37:21.067Z,4.90
2023-02-04T10:39:50.091Z,5.00
2023-02-04T10:42:23.626Z,5.10
2023-02-04T10:44:52.091Z,5.10
2023-02-04T10:47:21.834Z,5.20
2023-02-04T10:49:55.627Z,5.20
2023-02-04T10:52:38.665Z,5.20
2023-02-04T10:55:11.856Z,5.30
2023-02-04T10:57:41.363Z,5.30
2023-02-04T11:00:18.211Z,5.30
2023-02-04T11:02:49.773Z,5.40
2023-02-04T11:05:19.962Z,5.50
2023-02-04T11:07:52.409Z,5.50
2023-02-04T11:10:23.559Z,5.70
2023-02-04T11:13:03.220Z,5.80
2023-02-04T11:15:50.564Z,5.80
2023-02-04T11:18:31.835Z,5.90
2023-02-04T11:21:00.863Z,5.90
2023-02-04T11:23:38.206Z,5.90
2023-02-04T11:26:14.593Z,5.90
2023-02-04T11:28:57.345Z,5.90
2023-02-04T11:31:40.241Z,6.00
2023-02-04T11:34:25.209Z,6.00
2023-02-04T11:37:02.606Z,6.00
2023-02-04T11:39:36.833Z,6.00
2023-02-04T11:42:05.126Z,6.00
2023-02-04T11:44:33.937Z,6.00
2023-02-04T11:47:02.890Z,6.00
2023-02-04T11:49:31.928Z,5.90
2023-02-04T11:52:08.899Z,5.90
2023-02-04T11:54:38.343Z,5.90
2023-02-04T11:57:06.567Z,5.80
2023-02-04T11:59:34.777Z,5.80
2023-02-04T12:02:07.922Z,5.80
2023-02-04T12:04:36.084Z,5.80
2023-02-04T12:07:05.455Z,5.80
2023-02-04T12:09:33.556Z,5.80
2023-02-04T12:12:04.709Z,5.90
2023-02-04T12:14:34.985Z,6.00
2023-02-04T12:17:14.085Z,6.00
2023-02-04T12:19:42.109Z,6.00
2023-02-04T12:22:09.948Z,6.00
2023-02-04T12:24:38.396Z,6.00
2023-02-04T12:27:07.542Z,6.00
2023-02-04T12:29:35.644Z,6.00
2023-02-04T12:32:03.533Z,6.00
2023-02-04T12:34:31.973Z,6.10
2023-02-04T12:36:59.777Z,6.20
2023-02-04T12:39:28.694Z,6.20
2023-02-04T12:41:56.619Z,6.20
2023-02-04T12:44:26.488Z,6.20
2023-02-04T12:46:55.443Z,6.20
2023-02-04T12:49:24.314Z,6.10
2023-02-04T12:51:52.820Z,6.10
2023-02-04T12:54:20.610Z,6.10
2023-02-04T12:56:49.421Z,6.00
2023-02-04T12:59:17.184Z,6.00
2023-02-04T13:01:46.329Z,6.00
2023-02-04T13:04:14.453Z,6.00
2023-02-04T13:06:43.325Z,6.00
2023-02-04T13:09:11.120Z,6.00
2023-02-04T13:11:38.866Z,6.00
2023-02-04T13:14:06.661Z,6.00
2023-02-04T13:16:36.198Z,6.00
2023-02-04T13:19:05.961Z,6.00
2023-02-04T13:21:33.804Z,6.00
2023-02-04T13:24:01.586Z,6.00
2023-02-04T13:26:29.637Z,6.00
2023-02-04T13:28:57.373Z,6.00
2023-02-04T13:31:25.281Z,6.00
2023-02-04T13:33:53.124Z,6.00
2023-02-04T13:36:22.577Z,6.00
2023-02-04T13:38:50.592Z,6.00
2023-02-04T13:41:18.873Z,6.10
2023-02-04T13:43:46.705Z,6.00
2023-02-04T13:46:14.574Z,6.00
2023-02-04T13:48:42.493Z,6.00
2023-02-04T13:51:10.356Z,5.90
2023-02-04T13:53:39.465Z,5.90
2023-02-04T13:56:07.432Z,5.90
2023-02-04T13:58:35.251Z,5.80
2023-02-04T14:01:03.243Z,5.70
2023-02-04T14:03:31.367Z,5.70
2023-02-04T14:05:59.098Z,5.70
2023-02-04T14:08:27.144Z,5.60
2023-02-04T14:10:56.601Z,5.50
2023-02-04T14:13:24.385Z,5.50
2023-02-04T14:15:52.530Z,5.50
2023-02-04T14:18:21.082Z,5.40
2023-02-04T14:20:48.844Z,5.40
2023-02-04T14:23:16.611Z,5.40
2023-02-04T14:25:46.498Z,5.40
2023-02-04T14:28:15.832Z,5.30
2023-02-04T14:30:44.525Z,5.30
2023-02-04T14:33:12.948Z,5.30
2023-02-04T14:35:40.680Z,5.20
2023-02-04T14:38:08.665Z,5.20
2023-02-04T14:40:36.479Z,5.20
2023-02-04T14:43:04.525Z,5.10
2023-02-04T14:45:34.063Z,5.10
2023-02-04T14:48:02.776Z,5.10
2023-02-04T14:50:30.871Z,5.10
2023-02-04T14:52:58.887Z,5.00
2023-02-04T14:55:27.820Z,5.00
2023-02-04T14:57:55.646Z,5.00
2023-02-04T15:00:23.994Z,4.90
2023-02-04T15:02:53.608Z,4.90
2023-02-04T15:05:21.627Z,4.90
2023-02-04T15:07:49.695Z,4.80
2023-02-04T15:10:17.789Z,4.80
2023-02-04T15:12:45.767Z,4.80
2023-02-04T15:15:13.718Z,4.70
2023-02-04T15:17:41.774Z,4.80
2023-02-04T15:20:12.421Z,4.70
2023-02-04T15:22:40.352Z,4.70
2023-02-04T15:25:08.246Z,4.70
2023-02-04T15:27:36.081Z,4.70
2023-02-04T15:30:04.245Z,4.60
2023-02-04T15:32:32.556Z,4.60
2023-02-04T15:35:00.349Z,4.60
2023-02-04T15:37:29.538Z,4.60
2023-02-04T15:39:57.300Z,4.60
2023-02-04T15:42:25.088Z,4.50
2023-02-04T15:44:53.031Z,4.50
2023-02-04T15:47:21.302Z,4.40
2023-02-04T15:49:49.585Z,4.40
2023-02-04T15:52:24.420Z,4.40
2023-02-04T15:54:54.231Z,4.40
2023-02-04T15:57:22.007Z,4.30
2023-02-04T15:59:49.969Z,4.30
2023-02-04T16:02:17.952Z,4.30
2023-02-04T16:04:48.113Z,4.20
2023-02-04T16:07:15.933Z,4.20
2023-02-04T16:09:44.414Z,4.20
2023-02-04T16:12:13.576Z,4.20
2023-02-04T16:14:41.398Z,4.10
2023-02-04T16:17:09.697Z,4.10
2023-02-04T16:19:37.486Z,4.10
2023-02-04T16:22:06.441Z,4.00
2023-02-04T16:24:34.303Z,4.00
2023-02-04T16:27:02.321Z,3.90
2023-02-04T16:29:31.600Z,3.90
2023-02-04T16:32:00.044Z,3.90
2023-02-04T16:34:29.158Z,3.90
2023-02-04T16:36:56.969Z,3.80
2023-02-04T16:39:24.841Z,3.80
2023-02-04T16:41:53.124Z,3.80
2023-02-04T16:44:21.200Z,3.70
2023-02-04T16:46:50.821Z,3.70
2023-02-04T16:49:19.566Z,3.70
2023-02-04T16:51:47.688Z,3.70
2023-02-04T16:54:15.792Z,3.70
2023-02-04T16:56:43.584Z,3.70
2023-02-04T16:59:11.411Z,3.70
2023-02-04T17:01:39.255Z,3.70
2023-02-04T17:04:08.553Z,3.70
2023-02-04T17:06:36.708Z,3.70
2023-02-04T17:09:04.856Z,3.70
2023-02-04T17:11:33.347Z,3.60
2023-02-04T17:14:03.570Z,3.60
2023-02-04T17:16:32.596Z,3.60
2023-02-04T17:19:01.571Z,3.60
2023-02-04T17:21:31.715Z,3.60
2023-02-04T17:24:04.366Z,3.60
2023-02-04T17:26:36.920Z,3.60
2023-02-04T17:29:05.522Z,3.60
2023-02-04T17:31:33.546Z,3.60
2023-02-04T17:34:02.294Z,3.60
2023-02-04T17:36:31.569Z,3.60
2023-02-04T17:38:59.867Z,3.50
2023-02-04T17:41:28.196Z,3.50
2023-02-04T17:43:56.108Z,3.50
2023-02-04T17:46:23.899Z,3.50
2023-02-04T17:48:51.742Z,3.50
2023-02-04T17:51:19.470Z,3.40
2023-02-04T17:53:48.589Z,3.40
2023-02-04T17:56:16.696Z,3.30
2023-02-04T17:58:45.807Z,3.20
2023-02-04T18:01:15.746Z,3.20
2023-02-04T18:03:46.506Z,3.10
2023-02-04T18:06:22.055Z,3.00
2023-02-04T18:08:56.535Z,3.00
2023-02-04T18:11:28.564Z,2.90
2023-02-04T18:14:00.808Z,2.90
2023-02-04T18:16:30.435Z,2.80
2023-02-04T18:19:03.066Z,2.80
2023-02-04T18:21:33.391Z,2.70
2023-02-04T18:24:18.361Z,2.70
2023-02-04T18:26:48.584Z,2.70
2023-02-04T18:29:30.245Z,2.70
2023-02-04T18:32:00.681Z,2.70
2023-02-04T18:34:35.492Z,2.60
2023-02-04T18:37:26.747Z,2.70
2023-02-04T18:39:58.851Z,2.70
2023-02-04T18:42:28.289Z,2.70
2023-02-04T18:44:56.784Z,2.70
2023-02-04T18:47:31.459Z,2.70
2023-02-04T18:50:01.454Z,2.80
2023-02-04T18:52:37.667Z,2.80
2023-02-04T18:55:23.754Z,2.80
2023-02-04T18:57:51.579Z,2.80
2023-02-04T19:00:33.668Z,2.90
2023-02-04T19:03:20.026Z,2.90
2023-02-04T19:05:49.767Z,2.90
2023-02-04T19:08:27.642Z,2.90
2023-02-04T19:10:58.287Z,2.90
2023-02-04T19:13:38.061Z,3.00
2023-02-04T19:16:22.089Z,2.90
2023-02-04T19:18:50.479Z,3.00
2023-02-04T19:21:27.382Z,3.00
2023-02-04T19:24:01.899Z,3.00
2023-02-04T19:26:36.261Z,3.00
2023-02-04T19:29:37.357Z,3.00
2023-02-04T19:32:22.860Z,3.00
2023-02-04T19:34:52.414Z,3.00
2023-02-04T19:37:24.246Z,3.00
2023-02-04T19:39:52.770Z,3.00
2023-02-04T19:42:34.734Z,3.00
2023-02-04T19:45:04.245Z,3.00
2023-02-04T19:47:38.464Z,3.00
2023-02-04T19:50:23.534Z,3.00
2023-02-04T19:52:53.106Z,3.00
2023-02-04T19:55:34.357Z,2.90
2023-02-04T19:58:15.474Z,2.90
2023-02-04T20:00:48.721Z,2.90
2023-02-04T20:03:38.198Z,2.80
2023-02-04T20:06:27.271Z,2.80
2023-02-04T20:09:11.608Z,2.70
2023-02-04T20:11:49.823Z,2.70
2023-02-04T20:14:40.945Z,2.60
2023-02-04T20:17:20.196Z,2.60
2023-02-04T20:19:49.056Z,2.50
2023-02-04T20:22:46.005Z,2.50
2023-02-04T20:25:37.015Z,2.40
2023-02-04T20:28:19.809Z,2.40
2023-02-04T20:30:50.160Z,2.30
2023-02-04T20:33:30.120Z,2.30
2023-02-04T20:36:27.744Z,2.20
2023-02-04T20:39:39.488Z,2.20
2023-02-04T20:42:30.495Z,2.10
2023-02-04T20:45:11.783Z,2.00
2023-02-04T20:47:41.192Z,2.00
2023-02-04T20:50:44.511Z,1.90
2023-02-04T20:53:23.332Z,1.80
2023-02-04T20:55:55.296Z,1.80
2023-02-04T20:58:25.242Z,1.70
2023-02-04T21:00:56.066Z,1.70
2023-02-04T21:03:30.019Z,1.60
2023-02-04T21:06:00.006Z,1.60
2023-02-04T21:08:35.473Z,1.50
2023-02-04T21:11:03.922Z,1.40
2023-02-04T21:13:32.224Z,1.40
2023-02-04T21:16:01.648Z,1.40
2023-02-04T21:18:34.517Z,1.30
2023-02-04T21:21:03.844Z,1.30
2023-02-04T21:23:31.962Z,1.30
2023-02-04T21:25:59.858Z,1.30
2023-02-04T21:28:28.468Z,1.20
2023-02-04T21:30:56.397Z,1.20
2023-02-04T21:33:24.244Z,1.20
2023-02-04T21:35:53.401Z,1.10
2023-02-04T21:38:21.539Z,1.10
2023-02-04T21:40:49.720Z,1.10
2023-02-04T21:43:17.561Z,1.00
2023-02-04T21:45:45.424Z,1.00
2023-02-04T21:48:13.212Z,1.00
2023-02-04T21:50:41.728Z,1.00
2023-02-04T21:53:12.253Z,1.00
2023-02-04T21:55:40.628Z,1.00
2023-02-04T21:58:09.059Z,1.00
2023-02-04T22:00:37.120Z,0.90
2023-02-04T22:03:06.365Z,0.90
2023-02-04T22:05:34.927Z,0.90
2023-02-04T22:08:02.822Z,0.90
2023-02-04T22:10:31.891Z,0.80
2023-02-04T22:12:59.799Z,0.80
2023-02-04T22:15:28.653Z,0.80
2023-02-04T22:17:56.979Z,0.80
2023-02-04T22:20:25.801Z,0.80
2023-02-04T22:22:54.176Z,0.70
2023-02-04T22:25:22.758Z,0.70
2023-02-04T22:27:52.003Z,0.70
2023-02-04T22:30:20.207Z,0.70
2023-02-04T22:32:48.158Z,0.70
2023-02-04T22:35:16.185Z,0.70
2023-02-04T22:37:44.493Z,0.60
2023-02-04T22:40:14.110Z,0.60
2023-02-04T22:42:42.172Z,0.60
2023-02-04T22:45:11.678Z,0.60
2023-02-04T22:47:39.641Z,0.60
2023-02-04T22:50:08.328Z,0.60
2023-02-04T22:52:36.238Z,0.50
2023-02-04T22:55:04.327Z,0.50
2023-02-04T22:57:32.136Z,0.50
2023-02-04T23:00:00.102Z,0.50
2023-02-04T23:02:29.306Z,0.50
2023-02-04T23:04:57.337Z,0.40
2023-02-04T23:07:25.276Z,0.40
2023-02-04T23:09:53.073Z,0.40
2023-02-04T23:12:21.166Z,0.30
2023-02-04T23:14:50.565Z,0.30
2023-02-04T23:17:19.181Z,0.30
2023-02-04T23:19:48.371Z,0.20
2023-02-04T23:22:18.061Z,0.20
2023-02-04T23:24:46.074Z,0.20
2023-02-04T23:27:14.090Z,0.20
2023-02-04T23:29:41.845Z,0.10
2023-02-04T23:32:10.441Z,0.10
2023-02-04T23:34:38.447Z,0.10
2023-02-04T23:37:07.689Z,0.10
2023-02-04T23:39:35.482Z,0.10
2023-02-04T23:42:03.291Z,0.00
2023-02-04T23:44:31.188Z,0.00
2023-02-04T23:46:58.983Z,0.00
2023-02-04T23:49:27.304Z,0.00
2023-02-04T23:51:55.087Z,0.00
2023-02-04T23:54:24.669Z,0.00
2023-02-04T23:56:53.287Z,0.00
2023-02-04T23:59:21.117Z,0.00
